sensor_id;sensor_type;location;lat;lon;timestamp;P1;durP1;ratioP1;P2;durP2;ratioP2
63606;SDS011;51327;52.466;-1.938;2022-10-01T08:38:14;0.20;;;0.20;;
63606;SDS011;51327;52.466;-1.938;2022-10-01T08:40:51;0.25;;;0.25;;
63606;SDS011;51327;52.466;-1.938;2022-10-01T08:46:02;0.20;;;0.20;;
63606;SDS011;51327;52.466;-1.938;2022-10-01T08:49:10;0.68;;;0.20;;
63606;SDS011;51327;52.466;-1.938;2022-10-01T08:51:54;0.15;;;0.15;;
63606;SDS011;51327;52.466;-1.938;2022-10-01T08:54:39;0.20;;;0.20;;
63606;SDS011;51327;52.466;-1.938;2022-10-01T08:57:16;0.40;;;0.30;;
63606;SDS011;51327;52.466;-1.938;2022-10-01T08:59:47;0.35;;;0.30;;
63606;SDS011;51327;52.466;-1.938;2022-10-01T09:02:20;0.35;;;0.30;;
63606;SDS011;51327;52.466;-1.938;2022-10-01T09:05:06;0.25;;;0.25;;
63606;SDS011;51327;52.466;-1.938;2022-10-01T09:19:02;0.20;;;0.20;;
63606;SDS011;51327;52.466;-1.938;2022-10-01T09:24:14;0.30;;;0.30;;
63606;SDS011;51327;52.466;-1.938;2022-10-01T09:26:49;0.10;;;0.10;;
63606;SDS011;51327;52.466;-1.938;2022-10-01T09:29:17;0.20;;;0.20;;
63606;SDS011;51327;52.466;-1.938;2022-10-01T09:31:52;0.30;;;0.30;;
63606;SDS011;51327;52.466;-1.938;2022-10-01T09:34:34;0.30;;;0.30;;
63606;SDS011;51327;52.466;-1.938;2022-10-01T09:42:21;0.20;;;0.20;;
63606;SDS011;51327;52.466;-1.938;2022-10-01T09:44:53;0.17;;;0.17;;
63606;SDS011;51327;52.466;-1.938;2022-10-01T09:47:23;0.10;;;0.10;;
63606;SDS011;51327;52.466;-1.938;2022-10-01T09:49:53;0.10;;;0.10;;
63606;SDS011;51327;52.466;-1.938;2022-10-01T09:52:30;0.20;;;0.20;;
63606;SDS011;51327;52.466;-1.938;2022-10-01T09:55:04;0.10;;;0.10;;
63606;SDS011;51327;52.466;-1.938;2022-10-01T09:57:39;0.20;;;0.15;;
63606;SDS011;51327;52.466;-1.938;2022-10-01T10:00:10;0.20;;;0.20;;
63606;SDS011;51327;52.466;-1.938;2022-10-01T10:02:47;0.63;;;0.13;;
63606;SDS011;51327;52.466;-1.938;2022-10-01T10:05:15;0.52;;;0.38;;
63606;SDS011;51327;52.466;-1.938;2022-10-01T10:07:46;0.10;;;0.10;;
63606;SDS011;51327;52.466;-1.938;2022-10-01T10:10:31;0.10;;;0.10;;
63606;SDS011;51327;52.466;-1.938;2022-10-01T10:13:04;0.10;;;0.10;;
63606;SDS011;51327;52.466;-1.938;2022-10-01T10:15:54;0.10;;;0.10;;
63606;SDS011;51327;52.466;-1.938;2022-10-01T10:18:30;0.15;;;0.15;;
63606;SDS011;51327;52.466;-1.938;2022-10-01T10:21:02;0.20;;;0.20;;
63606;SDS011;51327;52.466;-1.938;2022-10-01T10:23:34;0.20;;;0.20;;
63606;SDS011;51327;52.466;-1.938;2022-10-01T10:26:28;0.20;;;0.20;;
63606;SDS011;51327;52.466;-1.938;2022-10-01T10:28:59;0.20;;;0.20;;
63606;SDS011;51327;52.466;-1.938;2022-10-01T10:31:33;0.10;;;0.10;;
63606;SDS011;51327;52.466;-1.938;2022-10-01T10:34:17;0.52;;;0.30;;
63606;SDS011;51327;52.466;-1.938;2022-10-01T10:36:55;0.17;;;0.17;;
63606;SDS011;51327;52.466;-1.938;2022-10-01T10:39:29;0.20;;;0.20;;
63606;SDS011;51327;52.466;-1.938;2022-10-01T10:41:59;0.35;;;0.25;;
63606;SDS011;51327;52.466;-1.938;2022-10-01T10:44:31;0.30;;;0.20;;
63606;SDS011;51327;52.466;-1.938;2022-10-01T10:47:06;0.40;;;0.40;;
63606;SDS011;51327;52.466;-1.938;2022-10-01T10:52:31;0.10;;;0.10;;
63606;SDS011;51327;52.466;-1.938;2022-10-01T10:57:50;0.10;;;0.10;;
63606;SDS011;51327;52.466;-1.938;2022-10-01T11:00:23;1.05;;;0.17;;
63606;SDS011;51327;52.466;-1.938;2022-10-01T11:02:57;0.20;;;0.20;;
63606;SDS011;51327;52.466;-1.938;2022-10-01T11:05:29;0.22;;;0.10;;
63606;SDS011;51327;52.466;-1.938;2022-10-01T11:08:09;0.47;;;0.20;;
63606;SDS011;51327;52.466;-1.938;2022-10-01T11:14:04;0.10;;;0.10;;
63606;SDS011;51327;52.466;-1.938;2022-10-01T11:22:55;0.10;;;0.10;;
63606;SDS011;51327;52.466;-1.938;2022-10-01T11:40:19;0.32;;;0.10;;
63606;SDS011;51327;52.466;-1.938;2022-10-01T11:42:54;0.10;;;0.10;;
63606;SDS011;51327;52.466;-1.938;2022-10-01T11:45:25;0.00;;;0.00;;
63606;SDS011;51327;52.466;-1.938;2022-10-01T11:48:03;0.10;;;0.10;;
63606;SDS011;51327;52.466;-1.938;2022-10-01T12:04:57;0.10;;;0.10;;
63606;SDS011;51327;52.466;-1.938;2022-10-01T12:19:23;1.08;;;0.10;;
63606;SDS011;51327;52.466;-1.938;2022-10-01T12:22:01;0.25;;;0.10;;
63606;SDS011;51327;52.466;-1.938;2022-10-01T12:25:13;0.08;;;0.08;;
63606;SDS011;51327;52.466;-1.938;2022-10-01T12:28:37;0.13;;;0.10;;
63606;SDS011;51327;52.466;-1.938;2022-10-01T12:32:03;0.25;;;0.10;;
63606;SDS011;51327;52.466;-1.938;2022-10-01T12:48:49;0.20;;;0.10;;
63606;SDS011;51327;52.466;-1.938;2022-10-01T12:51:42;0.15;;;0.00;;
63606;SDS011;51327;52.466;-1.938;2022-10-01T13:35:52;0.55;;;0.20;;
63606;SDS011;51327;52.466;-1.938;2022-10-01T13:38:41;0.30;;;0.20;;
63606;SDS011;51327;52.466;-1.938;2022-10-01T13:41:20;0.13;;;0.10;;
63606;SDS011;51327;52.466;-1.938;2022-10-01T13:47:05;0.10;;;0.10;;
63606;SDS011;51327;52.466;-1.938;2022-10-01T13:49:37;0.55;;;0.10;;
63606;SDS011;51327;52.466;-1.938;2022-10-01T13:55:39;0.45;;;0.20;;
63606;SDS011;51327;52.466;-1.938;2022-10-01T13:58:43;0.32;;;0.15;;
63606;SDS011;51327;52.466;-1.938;2022-10-01T14:07:26;0.10;;;0.10;;
63606;SDS011;51327;52.466;-1.938;2022-10-01T14:10:15;0.10;;;0.10;;
63606;SDS011;51327;52.466;-1.938;2022-10-01T14:12:46;0.25;;;0.10;;
63606;SDS011;51327;52.466;-1.938;2022-10-01T14:15:47;0.43;;;0.10;;
63606;SDS011;51327;52.466;-1.938;2022-10-01T14:18:42;0.10;;;0.10;;
63606;SDS011;51327;52.466;-1.938;2022-10-01T14:27:30;0.30;;;0.17;;
63606;SDS011;51327;52.466;-1.938;2022-10-01T14:30:19;1.05;;;0.45;;
63606;SDS011;51327;52.466;-1.938;2022-10-01T14:38:19;0.38;;;0.15;;
63606;SDS011;51327;52.466;-1.938;2022-10-01T14:40:50;0.68;;;0.10;;
63606;SDS011;51327;52.466;-1.938;2022-10-01T14:43:21;0.10;;;0.10;;
63606;SDS011;51327;52.466;-1.938;2022-10-01T14:46:11;0.38;;;0.15;;
63606;SDS011;51327;52.466;-1.938;2022-10-01T14:48:40;0.28;;;0.10;;
63606;SDS011;51327;52.466;-1.938;2022-10-01T14:51:19;0.45;;;0.20;;
63606;SDS011;51327;52.466;-1.938;2022-10-01T14:53:53;0.10;;;0.10;;
63606;SDS011;51327;52.466;-1.938;2022-10-01T14:56:22;0.80;;;0.15;;
63606;SDS011;51327;52.466;-1.938;2022-10-01T14:58:52;0.17;;;0.10;;
63606;SDS011;51327;52.466;-1.938;2022-10-01T15:01:23;0.10;;;0.10;;
63606;SDS011;51327;52.466;-1.938;2022-10-01T15:03:52;0.80;;;0.30;;
63606;SDS011;51327;52.466;-1.938;2022-10-01T15:06:21;0.25;;;0.20;;
63606;SDS011;51327;52.466;-1.938;2022-10-01T15:08:52;0.10;;;0.10;;
63606;SDS011;51327;52.466;-1.938;2022-10-01T15:11:23;2.10;;;1.35;;
63606;SDS011;51327;52.466;-1.938;2022-10-01T15:13:54;4.28;;;2.70;;
63606;SDS011;51327;52.466;-1.938;2022-10-01T15:16:28;4.75;;;3.15;;
63606;SDS011;51327;52.466;-1.938;2022-10-01T15:19:00;6.38;;;4.38;;
63606;SDS011;51327;52.466;-1.938;2022-10-01T15:21:37;11.63;;;5.88;;
63606;SDS011;51327;52.466;-1.938;2022-10-01T15:24:14;30.80;;;18.10;;
63606;SDS011;51327;52.466;-1.938;2022-10-01T15:27:06;44.90;;;24.83;;
63606;SDS011;51327;52.466;-1.938;2022-10-01T15:29:33;53.95;;;29.60;;
63606;SDS011;51327;52.466;-1.938;2022-10-01T15:32:00;73.30;;;35.17;;
63606;SDS011;51327;52.466;-1.938;2022-10-01T15:34:32;117.37;;;52.73;;
63606;SDS011;51327;52.466;-1.938;2022-10-01T15:37:01;113.72;;;51.15;;
63606;SDS011;51327;52.466;-1.938;2022-10-01T15:39:34;110.88;;;48.03;;
63606;SDS011;51327;52.466;-1.938;2022-10-01T15:42:54;145.82;;;64.80;;
63606;SDS011;51327;52.466;-1.938;2022-10-01T15:47:35;176.43;;;74.57;;
63606;SDS011;51327;52.466;-1.938;2022-10-01T15:52:44;165.82;;;69.25;;
63606;SDS011;51327;52.466;-1.938;2022-10-01T16:03:16;73.85;;;35.22;;
63606;SDS011;51327;52.466;-1.938;2022-10-01T16:05:45;60.67;;;32.42;;
63606;SDS011;51327;52.466;-1.938;2022-10-01T16:08:16;54.03;;;27.10;;
63606;SDS011;51327;52.466;-1.938;2022-10-01T16:11:06;46.50;;;26.25;;
63606;SDS011;51327;52.466;-1.938;2022-10-01T16:13:42;39.72;;;21.95;;
63606;SDS011;51327;52.466;-1.938;2022-10-01T16:16:17;42.03;;;21.75;;
63606;SDS011;51327;52.466;-1.938;2022-10-01T16:18:58;49.88;;;26.42;;
63606;SDS011;51327;52.466;-1.938;2022-10-01T16:24:46;59.70;;;25.50;;
63606;SDS011;51327;52.466;-1.938;2022-10-01T16:27:15;76.40;;;35.22;;
63606;SDS011;51327;52.466;-1.938;2022-10-01T16:30:01;78.72;;;37.63;;
63606;SDS011;51327;52.466;-1.938;2022-10-01T16:32:35;92.68;;;42.08;;
63606;SDS011;51327;52.466;-1.938;2022-10-01T16:35:20;74.38;;;36.10;;
63606;SDS011;51327;52.466;-1.938;2022-10-01T16:37:49;82.97;;;39.15;;
63606;SDS011;51327;52.466;-1.938;2022-10-01T16:40:17;87.60;;;40.50;;
63606;SDS011;51327;52.466;-1.938;2022-10-01T17:06:49;15.65;;;8.10;;
63606;SDS011;51327;52.466;-1.938;2022-10-01T17:09:17;12.32;;;7.70;;
63606;SDS011;51327;52.466;-1.938;2022-10-01T17:11:44;12.07;;;7.25;;
63606;SDS011;51327;52.466;-1.938;2022-10-01T17:14:14;8.57;;;5.30;;
63606;SDS011;51327;52.466;-1.938;2022-10-01T17:33:14;4.35;;;2.03;;
63606;SDS011;51327;52.466;-1.938;2022-10-01T17:35:46;2.72;;;1.50;;
63606;SDS011;51327;52.466;-1.938;2022-10-01T17:38:18;2.78;;;1.40;;
63606;SDS011;51327;52.466;-1.938;2022-10-01T17:41:01;2.22;;;1.13;;
63606;SDS011;51327;52.466;-1.938;2022-10-01T17:43:47;1.58;;;1.02;;
63606;SDS011;51327;52.466;-1.938;2022-10-01T17:46:39;1.77;;;0.73;;
63606;SDS011;51327;52.466;-1.938;2022-10-01T17:49:10;1.23;;;0.85;;
63606;SDS011;51327;52.466;-1.938;2022-10-01T17:51:37;1.25;;;0.75;;
63606;SDS011;51327;52.466;-1.938;2022-10-01T17:54:08;1.63;;;0.82;;
63606;SDS011;51327;52.466;-1.938;2022-10-01T17:56:38;1.85;;;0.77;;
63606;SDS011;51327;52.466;-1.938;2022-10-01T17:59:13;1.20;;;0.50;;
63606;SDS011;51327;52.466;-1.938;2022-10-01T18:01:39;0.43;;;0.40;;
63606;SDS011;51327;52.466;-1.938;2022-10-01T18:04:13;1.15;;;1.05;;
63606;SDS011;51327;52.466;-1.938;2022-10-01T18:07:27;0.52;;;0.40;;
63606;SDS011;51327;52.466;-1.938;2022-10-01T18:10:13;1.63;;;0.55;;
63606;SDS011;51327;52.466;-1.938;2022-10-01T18:43:23;0.28;;;0.28;;
63606;SDS011;51327;52.466;-1.938;2022-10-01T19:00:50;0.32;;;0.32;;
63606;SDS011;51327;52.466;-1.938;2022-10-01T19:10:57;0.30;;;0.30;;
63606;SDS011;51327;52.466;-1.938;2022-10-01T19:21:30;0.30;;;0.30;;
63606;SDS011;51327;52.466;-1.938;2022-10-01T19:31:51;0.98;;;0.30;;
63606;SDS011;51327;52.466;-1.938;2022-10-01T19:38:27;0.70;;;0.45;;
63606;SDS011;51327;52.466;-1.938;2022-10-01T19:41:45;0.63;;;0.40;;
63606;SDS011;51327;52.466;-1.938;2022-10-01T19:45:19;0.40;;;0.40;;
63606;SDS011;51327;52.466;-1.938;2022-10-01T21:14:50;0.30;;;0.30;;
63606;SDS011;51327;52.466;-1.938;2022-10-01T21:20:44;0.20;;;0.20;;
63606;SDS011;51327;52.466;-1.938;2022-10-01T21:35:57;0.20;;;0.20;;
63606;SDS011;51327;52.466;-1.938;2022-10-01T21:38:44;0.20;;;0.20;;
63606;SDS011;51327;52.466;-1.938;2022-10-01T21:46:49;0.20;;;0.20;;
63606;SDS011;51327;52.466;-1.938;2022-10-01T21:58:25;0.10;;;0.10;;
63606;SDS011;51327;52.466;-1.938;2022-10-01T22:06:55;0.20;;;0.20;;
63606;SDS011;51327;52.466;-1.938;2022-10-01T22:12:33;0.30;;;0.30;;
63606;SDS011;51327;52.466;-1.938;2022-10-01T22:15:09;0.22;;;0.22;;
63606;SDS011;51327;52.466;-1.938;2022-10-01T22:17:51;0.38;;;0.20;;
63606;SDS011;51327;52.466;-1.938;2022-10-01T22:20:19;0.30;;;0.20;;
63606;SDS011;51327;52.466;-1.938;2022-10-01T22:22:49;0.20;;;0.20;;
63606;SDS011;51327;52.466;-1.938;2022-10-01T22:25:23;0.20;;;0.20;;
63606;SDS011;51327;52.466;-1.938;2022-10-01T22:27:54;0.20;;;0.20;;
63606;SDS011;51327;52.466;-1.938;2022-10-01T22:30:31;0.20;;;0.20;;
63606;SDS011;51327;52.466;-1.938;2022-10-01T22:33:11;0.10;;;0.10;;
63606;SDS011;51327;52.466;-1.938;2022-10-01T22:38:53;0.20;;;0.20;;
63606;SDS011;51327;52.466;-1.938;2022-10-01T22:41:37;0.98;;;0.20;;
63606;SDS011;51327;52.466;-1.938;2022-10-01T22:44:15;0.10;;;0.10;;
63606;SDS011;51327;52.466;-1.938;2022-10-01T23:00:41;0.38;;;0.38;;
63606;SDS011;51327;52.466;-1.938;2022-10-01T23:08:43;0.20;;;0.20;;
63606;SDS011;51327;52.466;-1.938;2022-10-01T23:17:05;0.85;;;0.28;;
63606;SDS011;51327;52.466;-1.938;2022-10-01T23:25:18;0.20;;;0.20;;
63606;SDS011;51327;52.466;-1.938;2022-10-01T23:34:03;0.30;;;0.30;;
63606;SDS011;51327;52.466;-1.938;2022-10-01T23:36:48;0.20;;;0.20;;
63606;SDS011;51327;52.466;-1.938;2022-10-01T23:42:16;0.60;;;0.40;;
63606;SDS011;51327;52.466;-1.938;2022-10-01T23:48:03;0.30;;;0.30;;
63606;SDS011;51327;52.466;-1.938;2022-10-01T23:50:47;0.95;;;0.30;;
63606;SDS011;51327;52.466;-1.938;2022-10-01T23:53:21;0.30;;;0.30;;
63606;SDS011;51327;52.466;-1.938;2022-10-01T23:56:08;1.17;;;0.20;;
